Wednesday, April 25, 2018, 5:05 AM EDT
Back to Local

KMQE, Milton Blue Hill Observ

Location: Milton, MA, United States Lat: 42.217
Local Time: 5:05 AM EDT ( 9:05 GMT) Lon: -71.117
Time Zone: US/Eastern Elev: 629 ft

Show me the last for .
Show Coded

Time T Td Feel RH Dir Speed Gust Alt SLP Vis Weather Sky Remarks
2018-04-25 03:56 48 41 43 76 150° 10 - 30.14 30.17 0 None
2018-04-25 02:56 48 39 43 70 160° 10 - 30.16 30.20 0 None
2018-04-25 01:56 48 36 43 62 150° 12 - 30.19 30.22 0 6-hr Min Temp (2am): 48.0°F
6-hr Max Temp (2am): 52.0°F
2018-04-25 00:56 48 35 44 60 160° 8 - 30.22 30.26 0 24-hr Min Temp (1am): 39.0°F
24-hr Max Temp (1am): 66.9°F
2018-04-24 23:56 49 35 46 58 170° 7 - 30.24 30.27 0 None
2018-04-24 22:56 49 36 44 60 180° 14 - 30.26 30.29 0 None
2018-04-24 21:56 50 38 43 63 180° 16 23 30.27 30.30 0 None
2018-04-24 20:56 51 35 - 54 170° 16 26 30.26 30.30 0 None
2018-04-24 19:56 52 34 - 50 180° 18 23 30.25 30.29 0 6-hr Min Temp (8pm): 52.0°F
6-hr Max Temp (8pm): 66.9°F
2018-04-24 18:56 54 32 - 43 180° 14 22 30.25 30.29 0 None
2018-04-24 17:56 57 34 - 41 170° 22 29 30.26 30.30 0 Peak wind: 31 mph (27 kts) from 170° at 05 min
2018-04-24 16:56 60 36 - 40 180° 18 28 30.26 30.30 0 Peak wind: 29 mph (26 kts) from 190° at 12 min
2018-04-24 15:56 62 35 - 36 180° 20 26 30.27 30.30 0 Peak wind: 33 mph (29 kts) from 180° at 23 min
2018-04-24 14:56 66 34 - 30 190° 14 25 30.28 30.32 0 None
2018-04-24 13:56 66 31 - 26 190° 18 28 30.31 30.34 0 6-hr Min Temp (2pm): 46.0°F
6-hr Max Temp (2pm): 66.9°F
2018-04-24 12:56 65 27 - 23 190° 14 23 30.32 30.35 0 None
2018-04-24 11:56 64 27 - 24 200° 14 22 30.35 30.38 0 None
2018-04-24 10:56 61 30 - 30 220° 8 - 30.38 30.42 0 None
2018-04-24 09:56 57 29 - 34 210° 13 - 30.39 30.42 0 None
2018-04-24 08:56 53 32 - 44 230° 13 18 30.39 30.43 0 None
2018-04-24 07:56 46 37 41 70 210° 12 - 30.39 30.43 0 6-hr Min Temp (8am): 39.0°F
6-hr Max Temp (8am): 46.0°F
2018-04-24 06:56 41 34 33 75 220° 14 - 30.39 30.42 0 None
2018-04-24 05:56 40 33 32 76 220° 15 - 30.37 30.41 0 None

Support USWX by starting your Amazon purchase here.